sensor_id;sensor_type;location;lat;lon;timestamp;pressure;altitude;pressure_sealevel;temperature
80246;BMP280;69558;39.208;-77.226;2023-12-20T00:01:50;101147.28;;;17.33
80246;BMP280;69558;39.208;-77.226;2023-12-20T00:04:16;101159.38;;;17.34
80246;BMP280;69558;39.208;-77.226;2023-12-20T00:06:42;101169.34;;;17.31
80246;BMP280;69558;39.208;-77.226;2023-12-20T00:09:09;101165.75;;;17.32
80246;BMP280;69558;39.208;-77.226;2023-12-20T00:11:35;101166.09;;;17.29
80246;BMP280;69558;39.208;-77.226;2023-12-20T00:14:01;101168.53;;;17.30
80246;BMP280;69558;39.208;-77.226;2023-12-20T00:16:26;101168.72;;;17.29
80246;BMP280;69558;39.208;-77.226;2023-12-20T00:18:54;101165.75;;;17.32
80246;BMP280;69558;39.208;-77.226;2023-12-20T00:21:20;101159.84;;;17.30
80246;BMP280;69558;39.208;-77.226;2023-12-20T00:23:46;101168.53;;;17.30
80246;BMP280;69558;39.208;-77.226;2023-12-20T00:26:12;101165.91;;;17.30
80246;BMP280;69558;39.208;-77.226;2023-12-20T00:28:38;101177.91;;;17.33
80246;BMP280;69558;39.208;-77.226;2023-12-20T00:31:04;101181.38;;;17.33
80246;BMP280;69558;39.208;-77.226;2023-12-20T00:33:31;101185.59;;;17.34
80246;BMP280;69558;39.208;-77.226;2023-12-20T00:35:58;101190.69;;;17.36
80246;BMP280;69558;39.208;-77.226;2023-12-20T00:38:25;101189.03;;;17.35
80246;BMP280;69558;39.208;-77.226;2023-12-20T00:40:50;101188.06;;;17.36
80246;BMP280;69558;39.208;-77.226;2023-12-20T00:43:16;101189.34;;;17.32
80246;BMP280;69558;39.208;-77.226;2023-12-20T00:45:42;101200.34;;;17.35
80246;BMP280;69558;39.208;-77.226;2023-12-20T00:48:08;101205.59;;;17.35
80246;BMP280;69558;39.208;-77.226;2023-12-20T00:50:34;101209.19;;;17.34
80246;BMP280;69558;39.208;-77.226;2023-12-20T00:53:00;101216.44;;;17.32
80246;BMP280;69558;39.208;-77.226;2023-12-20T00:55:26;101222.63;;;17.31
80246;BMP280;69558;39.208;-77.226;2023-12-20T00:57:52;101220.34;;;17.28
80246;BMP280;69558;39.208;-77.226;2023-12-20T01:00:19;101214.28;;;17.28
80246;BMP280;69558;39.208;-77.226;2023-12-20T01:02:45;101220.63;;;17.25
80246;BMP280;69558;39.208;-77.226;2023-12-20T01:05:12;101233.09;;;17.23
80246;BMP280;69558;39.208;-77.226;2023-12-20T01:07:38;101240.97;;;17.23
80246;BMP280;69558;39.208;-77.226;2023-12-20T01:10:04;101243.59;;;17.23
80246;BMP280;69558;39.208;-77.226;2023-12-20T01:12:30;101242.75;;;17.23
80246;BMP280;69558;39.208;-77.226;2023-12-20T01:15:30;101236.81;;;17.21
80246;BMP280;69558;39.208;-77.226;2023-12-20T01:19:04;101230.13;;;17.18
80246;BMP280;69558;39.208;-77.226;2023-12-20T01:21:48;101235.63;;;17.15
80246;BMP280;69558;39.208;-77.226;2023-12-20T01:24:14;101243.69;;;17.13
80246;BMP280;69558;39.208;-77.226;2023-12-20T01:26:39;101254.00;;;17.15
80246;BMP280;69558;39.208;-77.226;2023-12-20T01:29:05;101250.72;;;17.13
80246;BMP280;69558;39.208;-77.226;2023-12-20T01:31:31;101254.00;;;17.15
80246;BMP280;69558;39.208;-77.226;2023-12-20T01:33:58;101253.84;;;17.16
80246;BMP280;69558;39.208;-77.226;2023-12-20T01:36:24;101266.63;;;17.20
80246;BMP280;69558;39.208;-77.226;2023-12-20T01:38:50;101269.25;;;17.20
80246;BMP280;69558;39.208;-77.226;2023-12-20T01:41:16;101276.16;;;17.21
80246;BMP280;69558;39.208;-77.226;2023-12-20T01:43:41;101290.78;;;17.23
80246;BMP280;69558;39.208;-77.226;2023-12-20T01:46:07;101285.53;;;17.23
80246;BMP280;69558;39.208;-77.226;2023-12-20T01:48:33;101303.72;;;17.25
80246;BMP280;69558;39.208;-77.226;2023-12-20T01:51:00;101295.84;;;17.25
80246;BMP280;69558;39.208;-77.226;2023-12-20T01:53:28;101305.38;;;17.26
80246;BMP280;69558;39.208;-77.226;2023-12-20T01:55:56;101314.88;;;17.27
80246;BMP280;69558;39.208;-77.226;2023-12-20T01:58:24;101307.72;;;17.29
80246;BMP280;69558;39.208;-77.226;2023-12-20T02:00:51;101312.97;;;17.29
80246;BMP280;69558;39.208;-77.226;2023-12-20T02:03:18;101314.75;;;17.28
80246;BMP280;69558;39.208;-77.226;2023-12-20T02:05:44;101318.47;;;17.26
80246;BMP280;69558;39.208;-77.226;2023-12-20T02:08:11;101314.06;;;17.26
80246;BMP280;69558;39.208;-77.226;2023-12-20T02:10:45;101318.63;;;17.24
80246;BMP280;69558;39.208;-77.226;2023-12-20T02:13:12;101324.06;;;17.23
80246;BMP280;69558;39.208;-77.226;2023-12-20T02:15:38;101331.94;;;17.23
80246;BMP280;69558;39.208;-77.226;2023-12-20T02:18:04;101336.66;;;17.19
80246;BMP280;69558;39.208;-77.226;2023-12-20T02:20:31;101335.13;;;17.16
80246;BMP280;69558;39.208;-77.226;2023-12-20T02:22:57;101346.31;;;17.19
80246;BMP280;69558;39.208;-77.226;2023-12-20T02:25:22;101344.63;;;17.17
80246;BMP280;69558;39.208;-77.226;2023-12-20T02:27:49;101349.22;;;17.15
80246;BMP280;69558;39.208;-77.226;2023-12-20T02:30:15;101351.00;;;17.15
80246;BMP280;69558;39.208;-77.226;2023-12-20T02:32:41;101353.81;;;17.13
80246;BMP280;69558;39.208;-77.226;2023-12-20T02:35:07;101355.72;;;17.11
80246;BMP280;69558;39.208;-77.226;2023-12-20T02:37:33;101353.09;;;17.11
80246;BMP280;69558;39.208;-77.226;2023-12-20T02:39:59;101366.38;;;17.10
80246;BMP280;69558;39.208;-77.226;2023-12-20T02:42:25;101367.38;;;17.09
80246;BMP280;69558;39.208;-77.226;2023-12-20T02:44:51;101373.69;;;17.06
80246;BMP280;69558;39.208;-77.226;2023-12-20T02:47:17;101372.50;;;17.01
80246;BMP280;69558;39.208;-77.226;2023-12-20T02:49:43;101376.66;;;17.03
80246;BMP280;69558;39.208;-77.226;2023-12-20T02:52:08;101375.94;;;17.01
80246;BMP280;69558;39.208;-77.226;2023-12-20T02:54:34;101375.94;;;17.01
80246;BMP280;69558;39.208;-77.226;2023-12-20T02:57:00;101377.06;;;16.99
80246;BMP280;69558;39.208;-77.226;2023-12-20T02:59:26;101384.13;;;16.98
80246;BMP280;69558;39.208;-77.226;2023-12-20T03:01:52;101388.53;;;16.98
80246;BMP280;69558;39.208;-77.226;2023-12-20T03:04:18;101385.25;;;16.96
80246;BMP280;69558;39.208;-77.226;2023-12-20T03:06:43;101388.00;;;16.94
80246;BMP280;69558;39.208;-77.226;2023-12-20T03:09:09;101398.50;;;16.94
80246;BMP280;69558;39.208;-77.226;2023-12-20T03:11:35;101401.78;;;16.96
80246;BMP280;69558;39.208;-77.226;2023-12-20T03:14:01;101412.28;;;16.96
80246;BMP280;69558;39.208;-77.226;2023-12-20T03:16:26;101407.03;;;16.96
80246;BMP280;69558;39.208;-77.226;2023-12-20T03:18:52;101406.06;;;16.97
80246;BMP280;69558;39.208;-77.226;2023-12-20T03:21:19;101413.09;;;16.97
80246;BMP280;69558;39.208;-77.226;2023-12-20T03:23:45;101399.31;;;16.95
80246;BMP280;69558;39.208;-77.226;2023-12-20T03:26:11;101401.63;;;16.98
80246;BMP280;69558;39.208;-77.226;2023-12-20T03:28:36;101403.28;;;16.99
80246;BMP280;69558;39.208;-77.226;2023-12-20T03:31:03;101404.13;;;16.99
80246;BMP280;69558;39.208;-77.226;2023-12-20T03:33:29;101404.94;;;17.00
80246;BMP280;69558;39.208;-77.226;2023-12-20T03:35:55;101405.75;;;17.00
80246;BMP280;69558;39.208;-77.226;2023-12-20T03:38:21;101415.28;;;17.01
80246;BMP280;69558;39.208;-77.226;2023-12-20T03:40:50;101403.28;;;16.99
80246;BMP280;69558;39.208;-77.226;2023-12-20T03:43:15;101416.09;;;17.02
80246;BMP280;69558;39.208;-77.226;2023-12-20T03:45:42;101417.91;;;17.01
80246;BMP280;69558;39.208;-77.226;2023-12-20T03:48:08;101416.81;;;17.04
80246;BMP280;69558;39.208;-77.226;2023-12-20T03:50:35;101414.81;;;17.06
80246;BMP280;69558;39.208;-77.226;2023-12-20T03:53:01;101414.56;;;17.09
80246;BMP280;69558;39.208;-77.226;2023-12-20T03:55:27;101416.47;;;17.07
80246;BMP280;69558;39.208;-77.226;2023-12-20T03:57:53;101417.28;;;17.07
80246;BMP280;69558;39.208;-77.226;2023-12-20T04:00:19;101421.41;;;17.10
80246;BMP280;69558;39.208;-77.226;2023-12-20T04:02:45;101421.41;;;17.10
80246;BMP280;69558;39.208;-77.226;2023-12-20T04:05:11;101426.66;;;17.10
80246;BMP280;69558;39.208;-77.226;2023-12-20T04:07:37;101424.03;;;17.10
80246;BMP280;69558;39.208;-77.226;2023-12-20T04:10:04;101423.53;;;17.06
80246;BMP280;69558;39.208;-77.226;2023-12-20T04:12:30;101422.44;;;17.09
80246;BMP280;69558;39.208;-77.226;2023-12-20T04:14:56;101428.31;;;17.11
80246;BMP280;69558;39.208;-77.226;2023-12-20T04:17:23;101433.25;;;17.14
80246;BMP280;69558;39.208;-77.226;2023-12-20T04:19:49;101428.69;;;17.16
80246;BMP280;69558;39.208;-77.226;2023-12-20T04:22:15;101424.28;;;17.16
80246;BMP280;69558;39.208;-77.226;2023-12-20T04:24:41;101437.38;;;17.16
80246;BMP280;69558;39.208;-77.226;2023-12-20T04:27:10;101451.47;;;17.15
80246;BMP280;69558;39.208;-77.226;2023-12-20T04:29:35;101444.56;;;17.14
80246;BMP280;69558;39.208;-77.226;2023-12-20T04:32:02;101447.38;;;17.13
80246;BMP280;69558;39.208;-77.226;2023-12-20T04:34:28;101447.50;;;17.11
80246;BMP280;69558;39.208;-77.226;2023-12-20T04:36:54;101448.31;;;17.12
80246;BMP280;69558;39.208;-77.226;2023-12-20T04:39:20;101456.19;;;17.12
80246;BMP280;69558;39.208;-77.226;2023-12-20T04:41:46;101454.81;;;17.08
80246;BMP280;69558;39.208;-77.226;2023-12-20T04:44:13;101461.88;;;17.07
80246;BMP280;69558;39.208;-77.226;2023-12-20T04:46:39;101456.91;;;17.04
80246;BMP280;69558;39.208;-77.226;2023-12-20T04:49:05;101461.38;;;17.04
80246;BMP280;69558;39.208;-77.226;2023-12-20T04:51:34;101456.25;;;17.02
80246;BMP280;69558;39.208;-77.226;2023-12-20T04:54:00;101453.09;;;16.99
80246;BMP280;69558;39.208;-77.226;2023-12-20T04:56:26;101448.00;;;16.97
80246;BMP280;69558;39.208;-77.226;2023-12-20T04:58:52;101450.63;;;16.97
80246;BMP280;69558;39.208;-77.226;2023-12-20T05:01:18;101448.00;;;16.97
80246;BMP280;69558;39.208;-77.226;2023-12-20T05:03:44;101442.59;;;16.99
80246;BMP280;69558;39.208;-77.226;2023-12-20T05:06:10;101446.06;;;16.99
80246;BMP280;69558;39.208;-77.226;2023-12-20T05:08:36;101447.03;;;16.98
80246;BMP280;69558;39.208;-77.226;2023-12-20T05:11:02;101448.81;;;16.98
80246;BMP280;69558;39.208;-77.226;2023-12-20T05:13:28;101439.00;;;17.00
80246;BMP280;69558;39.208;-77.226;2023-12-20T05:15:54;101440.00;;;16.99
80246;BMP280;69558;39.208;-77.226;2023-12-20T05:18:20;101431.59;;;16.95
80246;BMP280;69558;39.208;-77.226;2023-12-20T05:20:47;101447.56;;;17.02
80246;BMP280;69558;39.208;-77.226;2023-12-20T05:23:13;101434.59;;;17.00
80246;BMP280;69558;39.208;-77.226;2023-12-20T05:25:39;101440.66;;;17.01
80246;BMP280;69558;39.208;-77.226;2023-12-20T05:28:05;101433.78;;;17.00
80246;BMP280;69558;39.208;-77.226;2023-12-20T05:30:31;101443.28;;;17.01
80246;BMP280;69558;39.208;-77.226;2023-12-20T05:32:57;101445.63;;;17.04
80246;BMP280;69558;39.208;-77.226;2023-12-20T05:35:24;101440.00;;;16.99
80246;BMP280;69558;39.208;-77.226;2023-12-20T05:37:50;101448.38;;;17.02
80246;BMP280;69558;39.208;-77.226;2023-12-20T05:40:15;101455.13;;;17.05
80246;BMP280;69558;39.208;-77.226;2023-12-20T05:42:41;101454.16;;;17.06
80246;BMP280;69558;39.208;-77.226;2023-12-20T05:45:07;101453.19;;;17.07
80246;BMP280;69558;39.208;-77.226;2023-12-20T05:47:33;101460.06;;;17.08
80246;BMP280;69558;39.208;-77.226;2023-12-20T05:49:59;101460.66;;;17.02
80246;BMP280;69558;39.208;-77.226;2023-12-20T05:52:25;101469.75;;;17.07
80246;BMP280;69558;39.208;-77.226;2023-12-20T05:54:51;101472.34;;;17.07
80246;BMP280;69558;39.208;-77.226;2023-12-20T05:57:17;101478.13;;;17.11
80246;BMP280;69558;39.208;-77.226;2023-12-20T05:59:43;101475.50;;;17.11
80246;BMP280;69558;39.208;-77.226;2023-12-20T06:02:09;101480.75;;;17.11
80246;BMP280;69558;39.208;-77.226;2023-12-20T06:04:35;101473.03;;;17.09
80246;BMP280;69558;39.208;-77.226;2023-12-20T06:07:00;101455.56;;;17.00
80246;BMP280;69558;39.208;-77.226;2023-12-20T06:09:29;101466.81;;;17.10
80246;BMP280;69558;39.208;-77.226;2023-12-20T06:11:55;101460.22;;;17.06
80246;BMP280;69558;39.208;-77.226;2023-12-20T06:14:21;101463.16;;;17.03
80246;BMP280;69558;39.208;-77.226;2023-12-20T06:16:47;101466.44;;;17.05
80246;BMP280;69558;39.208;-77.226;2023-12-20T06:19:12;101464.25;;;17.01
80246;BMP280;69558;39.208;-77.226;2023-12-20T06:21:39;101473.78;;;17.02
80246;BMP280;69558;39.208;-77.226;2023-12-20T06:24:05;101475.84;;;16.98
80246;BMP280;69558;39.208;-77.226;2023-12-20T06:26:30;101482.91;;;16.98
80246;BMP280;69558;39.208;-77.226;2023-12-20T06:28:56;101481.25;;;16.97
80246;BMP280;69558;39.208;-77.226;2023-12-20T06:31:22;101481.41;;;16.95
80246;BMP280;69558;39.208;-77.226;2023-12-20T06:33:48;101476.16;;;16.95
80246;BMP280;69558;39.208;-77.226;2023-12-20T06:36:25;101475.78;;;16.90
80246;BMP280;69558;39.208;-77.226;2023-12-20T06:38:52;101475.88;;;16.89
80246;BMP280;69558;39.208;-77.226;2023-12-20T06:41:18;101471.50;;;16.89
80246;BMP280;69558;39.208;-77.226;2023-12-20T06:43:44;101475.63;;;16.92
80246;BMP280;69558;39.208;-77.226;2023-12-20T06:46:10;101470.53;;;16.90
80246;BMP280;69558;39.208;-77.226;2023-12-20T06:48:35;101474.66;;;16.93
80246;BMP280;69558;39.208;-77.226;2023-12-20T06:51:02;101467.91;;;16.90
80246;BMP280;69558;39.208;-77.226;2023-12-20T06:53:28;101478.25;;;16.92
80246;BMP280;69558;39.208;-77.226;2023-12-20T06:55:54;101480.72;;;16.93
80246;BMP280;69558;39.208;-77.226;2023-12-20T06:58:22;101485.00;;;16.94
80246;BMP280;69558;39.208;-77.226;2023-12-20T07:00:48;101477.28;;;16.93
80246;BMP280;69558;39.208;-77.226;2023-12-20T07:03:13;101479.59;;;16.96
80246;BMP280;69558;39.208;-77.226;2023-12-20T07:05:39;101484.84;;;16.96
80246;BMP280;69558;39.208;-77.226;2023-12-20T07:08:06;101482.38;;;16.94
80246;BMP280;69558;39.208;-77.226;2023-12-20T07:10:32;101489.13;;;16.97
80246;BMP280;69558;39.208;-77.226;2023-12-20T07:12:58;101483.88;;;16.97
80246;BMP280;69558;39.208;-77.226;2023-12-20T07:15:25;101481.09;;;16.98
80246;BMP280;69558;39.208;-77.226;2023-12-20T07:17:52;101484.41;;;17.00
80246;BMP280;69558;39.208;-77.226;2023-12-20T07:20:18;101475.19;;;16.96
80246;BMP280;69558;39.208;-77.226;2023-12-20T07:22:44;101484.56;;;16.99
80246;BMP280;69558;39.208;-77.226;2023-12-20T07:25:10;101496.69;;;17.00
80246;BMP280;69558;39.208;-77.226;2023-12-20T07:27:36;101494.75;;;17.02
80246;BMP280;69558;39.208;-77.226;2023-12-20T07:30:02;101484.56;;;16.99
80246;BMP280;69558;39.208;-77.226;2023-12-20T07:32:28;101486.75;;;17.03
80246;BMP280;69558;39.208;-77.226;2023-12-20T07:34:54;101491.16;;;17.03
80246;BMP280;69558;39.208;-77.226;2023-12-20T07:37:20;101479.97;;;17.01
80246;BMP280;69558;39.208;-77.226;2023-12-20T07:39:46;101479.31;;;16.99
80246;BMP280;69558;39.208;-77.226;2023-12-20T07:42:14;101478.03;;;17.03
80246;BMP280;69558;39.208;-77.226;2023-12-20T07:44:40;101480.38;;;17.06
80246;BMP280;69558;39.208;-77.226;2023-12-20T07:47:05;101485.75;;;17.04
80246;BMP280;69558;39.208;-77.226;2023-12-20T07:49:31;101493.78;;;17.03
80246;BMP280;69558;39.208;-77.226;2023-12-20T07:51:58;101491.16;;;17.03
80246;BMP280;69558;39.208;-77.226;2023-12-20T07:54:24;101486.88;;;17.02
80246;BMP280;69558;39.208;-77.226;2023-12-20T07:56:50;101494.88;;;17.00
80246;BMP280;69558;39.208;-77.226;2023-12-20T07:59:16;101489.94;;;16.97
80246;BMP280;69558;39.208;-77.226;2023-12-20T08:01:42;101489.94;;;16.97
80246;BMP280;69558;39.208;-77.226;2023-12-20T08:04:08;101484.84;;;16.96
80246;BMP280;69558;39.208;-77.226;2023-12-20T08:06:34;101470.13;;;16.85
80246;BMP280;69558;39.208;-77.226;2023-12-20T08:09:00;101484.31;;;16.92
80246;BMP280;69558;39.208;-77.226;2023-12-20T08:11:26;101484.47;;;16.91
80246;BMP280;69558;39.208;-77.226;2023-12-20T08:13:51;101488.06;;;16.90
80246;BMP280;69558;39.208;-77.226;2023-12-20T08:16:17;101500.63;;;16.86
80246;BMP280;69558;39.208;-77.226;2023-12-20T08:18:43;101499.78;;;16.85
80246;BMP280;69558;39.208;-77.226;2023-12-20T08:21:09;101487.81;;;16.83
80246;BMP280;69558;39.208;-77.226;2023-12-20T08:23:37;101496.47;;;16.83
80246;BMP280;69558;39.208;-77.226;2023-12-20T08:26:07;101496.47;;;16.83
80246;BMP280;69558;39.208;-77.226;2023-12-20T08:28:33;101480.34;;;16.78
80246;BMP280;69558;39.208;-77.226;2023-12-20T08:31:00;101484.19;;;16.84
80246;BMP280;69558;39.208;-77.226;2023-12-20T08:33:26;101481.56;;;16.84
80246;BMP280;69558;39.208;-77.226;2023-12-20T08:35:51;101479.81;;;16.84
80246;BMP280;69558;39.208;-77.226;2023-12-20T08:38:17;101489.16;;;16.87
80246;BMP280;69558;39.208;-77.226;2023-12-20T08:40:44;101486.38;;;16.89
80246;BMP280;69558;39.208;-77.226;2023-12-20T08:43:10;101490.00;;;16.88
80246;BMP280;69558;39.208;-77.226;2023-12-20T08:45:36;101480.34;;;16.88
80246;BMP280;69558;39.208;-77.226;2023-12-20T08:48:02;101489.56;;;16.92
80246;BMP280;69558;39.208;-77.226;2023-12-20T08:50:29;101488.72;;;16.92
80246;BMP280;69558;39.208;-77.226;2023-12-20T08:52:55;101482.50;;;16.93
80246;BMP280;69558;39.208;-77.226;2023-12-20T08:55:21;101483.50;;;16.92
80246;BMP280;69558;39.208;-77.226;2023-12-20T08:57:47;101473.69;;;16.94
80246;BMP280;69558;39.208;-77.226;2023-12-20T09:00:13;101472.03;;;16.93
80246;BMP280;69558;39.208;-77.226;2023-12-20T09:02:41;101471.06;;;16.94
80246;BMP280;69558;39.208;-77.226;2023-12-20T09:05:07;101472.72;;;16.95
80246;BMP280;69558;39.208;-77.226;2023-12-20T09:07:33;101465.00;;;16.93
80246;BMP280;69558;39.208;-77.226;2023-12-20T09:09:59;101467.63;;;16.93
80246;BMP280;69558;39.208;-77.226;2023-12-20T09:12:25;101463.88;;;16.96
80246;BMP280;69558;39.208;-77.226;2023-12-20T09:14:52;101463.72;;;16.97
80246;BMP280;69558;39.208;-77.226;2023-12-20T09:17:18;101470.75;;;16.97
80246;BMP280;69558;39.208;-77.226;2023-12-20T09:19:45;101470.75;;;16.97
80246;BMP280;69558;39.208;-77.226;2023-12-20T09:22:11;101468.28;;;16.95
80246;BMP280;69558;39.208;-77.226;2023-12-20T09:24:37;101471.44;;;16.99
80246;BMP280;69558;39.208;-77.226;2023-12-20T09:27:04;101473.09;;;17.00
80246;BMP280;69558;39.208;-77.226;2023-12-20T09:29:31;101474.88;;;16.99
80246;BMP280;69558;39.208;-77.226;2023-12-20T09:31:57;101471.28;;;17.00
80246;BMP280;69558;39.208;-77.226;2023-12-20T09:34:24;101473.78;;;17.02
80246;BMP280;69558;39.208;-77.226;2023-12-20T09:36:51;101475.56;;;17.01
80246;BMP280;69558;39.208;-77.226;2023-12-20T09:39:18;101472.28;;;16.99
80246;BMP280;69558;39.208;-77.226;2023-12-20T09:41:51;101462.75;;;16.98
80246;BMP280;69558;39.208;-77.226;2023-12-20T09:44:22;101467.03;;;16.99
80246;BMP280;69558;39.208;-77.226;2023-12-20T09:46:49;101473.91;;;17.00
80246;BMP280;69558;39.208;-77.226;2023-12-20T09:49:18;101466.19;;;16.99
80246;BMP280;69558;39.208;-77.226;2023-12-20T09:51:46;101465.09;;;17.01
80246;BMP280;69558;39.208;-77.226;2023-12-20T09:54:14;101459.00;;;17.01
80246;BMP280;69558;39.208;-77.226;2023-12-20T09:56:40;101466.88;;;17.01
80246;BMP280;69558;39.208;-77.226;2023-12-20T09:59:06;101460.28;;;16.97
80246;BMP280;69558;39.208;-77.226;2023-12-20T10:01:33;101460.13;;;16.98
80246;BMP280;69558;39.208;-77.226;2023-12-20T10:04:00;101459.84;;;17.01
80246;BMP280;69558;39.208;-77.226;2023-12-20T10:06:27;101464.09;;;17.02
80246;BMP280;69558;39.208;-77.226;2023-12-20T10:08:54;101464.41;;;16.99
80246;BMP280;69558;39.208;-77.226;2023-12-20T10:11:20;101471.44;;;16.99
80246;BMP280;69558;39.208;-77.226;2023-12-20T10:13:48;101461.63;;;17.01
80246;BMP280;69558;39.208;-77.226;2023-12-20T10:16:14;101467.47;;;16.95
80246;BMP280;69558;39.208;-77.226;2023-12-20T10:18:40;101471.06;;;16.94
80246;BMP280;69558;39.208;-77.226;2023-12-20T10:21:06;101472.84;;;16.93
80246;BMP280;69558;39.208;-77.226;2023-12-20T10:23:36;101469.56;;;16.91
80246;BMP280;69558;39.208;-77.226;2023-12-20T10:26:02;101473.16;;;16.90
80246;BMP280;69558;39.208;-77.226;2023-12-20T10:28:33;101468.19;;;16.87
80246;BMP280;69558;39.208;-77.226;2023-12-20T10:31:00;101475.69;;;16.82
80246;BMP280;69558;39.208;-77.226;2023-12-20T10:33:27;101479.94;;;16.83
80246;BMP280;69558;39.208;-77.226;2023-12-20T10:35:55;101483.53;;;16.82
80246;BMP280;69558;39.208;-77.226;2023-12-20T10:38:21;101479.56;;;16.78
80246;BMP280;69558;39.208;-77.226;2023-12-20T10:40:47;101487.72;;;16.75
80246;BMP280;69558;39.208;-77.226;2023-12-20T10:43:15;101488.53;;;16.75
80246;BMP280;69558;39.208;-77.226;2023-12-20T10:45:42;101485.09;;;16.75
80246;BMP280;69558;39.208;-77.226;2023-12-20T10:48:10;101487.56;;;16.76
80246;BMP280;69558;39.208;-77.226;2023-12-20T10:50:41;101496.41;;;16.75
80246;BMP280;69558;39.208;-77.226;2023-12-20T10:53:07;101491.97;;;16.76
80246;BMP280;69558;39.208;-77.226;2023-12-20T10:55:33;101485.53;;;16.70
80246;BMP280;69558;39.208;-77.226;2023-12-20T10:58:19;101496.06;;;16.78
80246;BMP280;69558;39.208;-77.226;2023-12-20T11:00:47;101498.19;;;16.75
80246;BMP280;69558;39.208;-77.226;2023-12-20T11:03:17;101505.09;;;16.76
80246;BMP280;69558;39.208;-77.226;2023-12-20T11:05:53;101512.63;;;16.79
80246;BMP280;69558;39.208;-77.226;2023-12-20T11:08:33;101518.03;;;16.77
80246;BMP280;69558;39.208;-77.226;2023-12-20T11:11:11;101522.28;;;16.78
80246;BMP280;69558;39.208;-77.226;2023-12-20T11:14:00;101525.72;;;16.79
80246;BMP280;69558;39.208;-77.226;2023-12-20T11:16:28;101522.28;;;16.78
80246;BMP280;69558;39.208;-77.226;2023-12-20T11:18:54;101523.97;;;16.79
80246;BMP280;69558;39.208;-77.226;2023-12-20T11:21:20;101531.69;;;16.81
80246;BMP280;69558;39.208;-77.226;2023-12-20T11:23:46;101530.53;;;16.83
80246;BMP280;69558;39.208;-77.226;2023-12-20T11:26:15;101522.47;;;16.77
80246;BMP280;69558;39.208;-77.226;2023-12-20T11:28:42;101532.50;;;16.81
80246;BMP280;69558;39.208;-77.226;2023-12-20T11:31:07;101535.13;;;16.81
80246;BMP280;69558;39.208;-77.226;2023-12-20T11:33:37;101542.69;;;16.84
80246;BMP280;69558;39.208;-77.226;2023-12-20T11:36:03;101545.31;;;16.84
80246;BMP280;69558;39.208;-77.226;2023-12-20T11:38:38;101549.59;;;16.85
80246;BMP280;69558;39.208;-77.226;2023-12-20T11:41:06;101550.28;;;16.88
80246;BMP280;69558;39.208;-77.226;2023-12-20T11:43:39;101547.78;;;16.86
80246;BMP280;69558;39.208;-77.226;2023-12-20T11:46:08;101548.63;;;16.87
80246;BMP280;69558;39.208;-77.226;2023-12-20T11:48:36;101557.13;;;16.89
80246;BMP280;69558;39.208;-77.226;2023-12-20T11:51:02;101554.69;;;16.87
80246;BMP280;69558;39.208;-77.226;2023-12-20T11:53:29;101559.09;;;16.87
80246;BMP280;69558;39.208;-77.226;2023-12-20T11:55:58;101558.97;;;16.88
80246;BMP280;69558;39.208;-77.226;2023-12-20T11:58:25;101558.13;;;16.88
80246;BMP280;69558;39.208;-77.226;2023-12-20T12:00:51;101564.34;;;16.87
80246;BMP280;69558;39.208;-77.226;2023-12-20T12:03:17;101576.34;;;16.89
80246;BMP280;69558;39.208;-77.226;2023-12-20T12:05:43;101578.00;;;16.90
80246;BMP280;69558;39.208;-77.226;2023-12-20T12:08:11;101584.22;;;16.89
80246;BMP280;69558;39.208;-77.226;2023-12-20T12:10:37;101591.09;;;16.90
80246;BMP280;69558;39.208;-77.226;2023-12-20T12:13:03;101596.19;;;16.92
80246;BMP280;69558;39.208;-77.226;2023-12-20T12:15:29;101592.06;;;16.89
80246;BMP280;69558;39.208;-77.226;2023-12-20T12:17:56;101590.13;;;16.91
80246;BMP280;69558;39.208;-77.226;2023-12-20T12:20:23;101596.19;;;16.92
80246;BMP280;69558;39.208;-77.226;2023-12-20T12:23:04;101589.03;;;16.94
80246;BMP280;69558;39.208;-77.226;2023-12-20T12:25:30;101601.88;;;16.87
80246;BMP280;69558;39.208;-77.226;2023-12-20T12:27:58;101593.44;;;16.83
80246;BMP280;69558;39.208;-77.226;2023-12-20T12:30:24;101595.56;;;16.80
80246;BMP280;69558;39.208;-77.226;2023-12-20T12:32:53;101593.22;;;16.77
80246;BMP280;69558;39.208;-77.226;2023-12-20T12:35:19;101594.88;;;16.78
80246;BMP280;69558;39.208;-77.226;2023-12-20T12:37:46;101606.16;;;16.78
80246;BMP280;69558;39.208;-77.226;2023-12-20T12:40:13;101603.00;;;16.75
80246;BMP280;69558;39.208;-77.226;2023-12-20T12:42:40;101608.38;;;16.73
80246;BMP280;69558;39.208;-77.226;2023-12-20T12:45:07;101604.13;;;16.72
80246;BMP280;69558;39.208;-77.226;2023-12-20T12:47:34;101598.63;;;16.66
80246;BMP280;69558;39.208;-77.226;2023-12-20T12:50:00;101600.94;;;16.69
80246;BMP280;69558;39.208;-77.226;2023-12-20T12:52:26;101601.25;;;16.66
80246;BMP280;69558;39.208;-77.226;2023-12-20T12:54:53;101599.31;;;16.68
80246;BMP280;69558;39.208;-77.226;2023-12-20T12:57:19;101591.59;;;16.66
80246;BMP280;69558;39.208;-77.226;2023-12-20T12:59:45;101598.47;;;16.67
80246;BMP280;69558;39.208;-77.226;2023-12-20T13:02:14;101596.00;;;16.66
80246;BMP280;69558;39.208;-77.226;2023-12-20T13:04:41;101599.31;;;16.68
80246;BMP280;69558;39.208;-77.226;2023-12-20T13:07:09;101600.94;;;16.69
80246;BMP280;69558;39.208;-77.226;2023-12-20T13:09:38;101589.78;;;16.67
80246;BMP280;69558;39.208;-77.226;2023-12-20T13:12:05;101600.69;;;16.72
80246;BMP280;69558;39.208;-77.226;2023-12-20T13:14:35;101604.13;;;16.72
80246;BMP280;69558;39.208;-77.226;2023-12-20T13:17:04;101610.97;;;16.73
80246;BMP280;69558;39.208;-77.226;2023-12-20T13:19:30;101607.41;;;16.74
80246;BMP280;69558;39.208;-77.226;2023-12-20T13:21:56;101608.38;;;16.73
80246;BMP280;69558;39.208;-77.226;2023-12-20T13:24:23;101603.53;;;16.69
80246;BMP280;69558;39.208;-77.226;2023-12-20T13:26:49;101611.31;;;16.70
80246;BMP280;69558;39.208;-77.226;2023-12-20T13:29:15;101624.25;;;16.72
80246;BMP280;69558;39.208;-77.226;2023-12-20T13:31:41;101613.59;;;16.73